Time;durP1;ratioP1;P1;durP2;ratioP2;P2;SDS_P1;SDS_P2;PMS_P1;PMS_P2;Temp;Humidity;BMP_temperature;BMP_pressure;BME280_temperature;BME280_humidity;BME280_pressure;Samples;Min_cycle;Max_cycle;Signal;HPM_P1;HPM_P2
2022/03/07 00:00:29;;;;;;;;;;;;;;;;;;4916527;29;19970;-77
2022/03/07 00:02:55;;;;;;;;;;;;;;;;;;4935596;29;19974;-77
2022/03/07 00:05:21;;;;;;;;;;;;;;;;;;4935681;29;20367;-77
2022/03/07 00:07:47;;;;;;;;;;;;;;;;;;4903627;29;19919;-77
2022/03/07 00:10:13;;;;;;;;;;;;;;;;;;4916829;29;19911;-77
2022/03/07 00:12:39;;;;;;;;;;;;;;;;;;4917450;29;19923;-77
2022/03/07 00:15:05;;;;;;;;;;;;;;;;;;4899260;29;19962;-77
2022/03/07 00:17:31;;;;;;;;;;;;;;;;;;4916982;29;19950;-77
2022/03/07 00:19:57;;;;;;;;;;;;;;;;;;4916719;29;20275;-77
2022/03/07 00:22:23;;;;;;;;;;;;;;;;;;4917195;29;19946;-77
2022/03/07 00:24:48;;;;;;;;;;;;;;;;;;4916825;29;19912;-77
2022/03/07 00:27:14;;;;;;;;;;;;;;;;;;4916353;29;19998;-77
2022/03/07 00:29:40;;;;;;;;;;;;;;;;;;4916438;29;20280;-77
2022/03/07 00:32:06;;;;;;;;;;;;;;;;;;4934526;29;19915;-77
2022/03/07 00:34:32;;;;;;;;;;;;;;;;;;4929177;29;19919;-77
2022/03/07 00:36:58;;;;;;;;;;;;;;;;;;4935383;29;20399;-77
2022/03/07 00:39:24;;;;;;;;;;;;;;;;;;4935538;29;19962;-77
2022/03/07 00:41:50;;;;;;;;;;;;;;;;;;4935671;29;20001;-77
2022/03/07 00:44:16;;;;;;;;;;;;;;;;;;4904812;29;19916;-77
2022/03/07 00:46:42;;;;;;;;;;;;;;;;;;4897590;29;19987;-77
2022/03/07 00:49:08;;;;;;;;;;;;;;;;;;4897450;29;19935;-77
2022/03/07 00:51:34;;;;;;;;;;;;;;;;;;4912363;29;20129;-77
2022/03/07 00:53:59;;;;;;;;;;;;;;;;;;4897527;29;19912;-77
2022/03/07 00:56:25;;;;;;;;;;;;;;;;;;4902065;29;20379;-77
2022/03/07 00:58:51;;;;;;;;;;;;;;;;;;4916192;29;19919;-77
2022/03/07 01:01:17;;;;;;;;;;;;;;;;;;4921722;29;19962;-77
2022/03/07 01:03:43;;;;;;;;;;;;;;;;;;4910337;29;20295;-77
2022/03/07 01:06:09;;;;;;;;;;;;;;;;;;4935100;29;19911;-77
2022/03/07 01:08:35;;;;;;;;;;;;;;;;;;4935580;29;19919;-77
2022/03/07 01:11:01;;;;;;;;;;;;;;;;;;4935055;29;19918;-76
2022/03/07 01:13:27;;;;;;;;;;;;;;;;;;4934881;29;19911;-77
2022/03/07 01:15:53;;;;;;;;;;;;;;;;;;4933163;29;20294;-77
2022/03/07 01:18:19;;;;;;;;;;;;;;;;;;4915229;29;19915;-77
2022/03/07 01:20:44;;;;;;;;;;;;;;;;;;4898393;29;19923;-77
2022/03/07 01:23:10;;;;;;;;;;;;;;;;;;4915119;29;19918;-77
2022/03/07 01:25:36;;;;;;;;;;;;;;;;;;4915623;29;19994;-77
2022/03/07 01:28:02;;;;;;;;;;;;;;;;;;4897931;29;19919;-77
2022/03/07 01:30:28;;;;;;;;;;;;;;;;;;4924562;29;19915;-77
2022/03/07 01:32:54;;;;;;;;;;;;;;;;;;4934385;29;20005;-76
2022/03/07 01:35:20;;;;;;;;;;;;;;;;;;4934397;29;19950;-77
2022/03/07 01:37:46;;;;;;;;;;;;;;;;;;4934210;29;19911;-78
2022/03/07 01:40:12;;;;;;;;;;;;;;;;;;4933768;29;19915;-77
2022/03/07 01:42:38;;;;;;;;;;;;;;;;;;4933863;29;20379;-76
2022/03/07 01:45:04;;;;;;;;;;;;;;;;;;4933546;29;19923;-77
2022/03/07 01:47:32;;;;;;;;;;;;;;;;;;4933264;29;19915;-77
2022/03/07 01:49:58;;;;;;;;;;;;;;;;;;4916865;29;20379;-77
2022/03/07 01:52:24;;;;;;;;;;;;;;;;;;4933753;29;19915;-77
2022/03/07 01:54:50;;;;;;;;;;;;;;;;;;4934152;29;19907;-76
2022/03/07 01:57:15;;;;;;;;;;;;;;;;;;4933350;29;19950;-77
2022/03/07 01:59:41;;;;;;;;;;;;;;;;;;4934033;29;19993;-77
2022/03/07 02:02:07;;;;;;;;;;;;;;;;;;4915214;29;20433;-77
2022/03/07 02:04:33;;;;;;;;;;;;;;;;;;4924969;29;20016;-77
2022/03/07 02:06:59;;;;;;;;;;;;;;;;;;4916766;29;19915;-77
2022/03/07 02:09:25;;;;;;;;;;;;;;;;;;4933729;29;19911;-77
2022/03/07 02:11:51;;;;;;;;;;;;;;;;;;4932121;29;19966;-77
2022/03/07 02:14:17;;;;;;;;;;;;;;;;;;4933433;29;19915;-77
2022/03/07 02:16:43;;;;;;;;;;;;;;;;;;4857781;29;2001310;-76
2022/03/07 02:19:09;;;;;;;;;;;;;;;;;;4927239;29;19919;-77
2022/03/07 02:21:35;;;;;;;;;;;;;;;;;;4934391;29;19938;-77
2022/03/07 02:24:01;;;;;;;;;;;;;;;;;;4934093;29;19946;-77
2022/03/07 02:26:27;;;;;;;;;;;;;;;;;;4934666;29;19914;-76
2022/03/07 02:28:53;;;;;;;;;;;;;;;;;;4937949;29;19918;-77
2022/03/07 02:31:19;;;;;;;;;;;;;;;;;;4937644;29;19915;-77
2022/03/07 02:33:45;;;;;;;;;;;;;;;;;;4937375;29;19919;-77
2022/03/07 02:36:11;;;;;;;;;;;;;;;;;;4937553;29;20354;-77
2022/03/07 02:38:36;;;;;;;;;;;;;;;;;;4937525;29;19946;-77
2022/03/07 02:41:02;;;;;;;;;;;;;;;;;;4937714;29;20417;-76
2022/03/07 02:43:28;;;;;;;;;;;;;;;;;;4937508;29;20291;-77
2022/03/07 02:45:55;;;;;;;;;;;;;;;;;;4937657;29;19922;-77
2022/03/07 02:48:21;;;;;;;;;;;;;;;;;;4931581;29;20002;-77
2022/03/07 02:50:47;;;;;;;;;;;;;;;;;;4918520;29;19918;-77
2022/03/07 02:53:13;;;;;;;;;;;;;;;;;;4918627;29;19911;-77
2022/03/07 02:55:39;;;;;;;;;;;;;;;;;;4918481;29;19911;-77
2022/03/07 02:58:05;;;;;;;;;;;;;;;;;;4901361;29;20385;-77
2022/03/07 03:00:31;;;;;;;;;;;;;;;;;;4918536;29;19911;-77
2022/03/07 03:02:57;;;;;;;;;;;;;;;;;;4909341;29;19946;-77
2022/03/07 03:05:23;;;;;;;;;;;;;;;;;;4936919;29;19957;-77
2022/03/07 03:07:50;;;;;;;;;;;;;;;;;;4936888;29;20018;-77
2022/03/07 03:10:16;;;;;;;;;;;;;;;;;;4920137;29;20398;-76
2022/03/07 03:12:42;;;;;;;;;;;;;;;;;;4937480;29;19911;-76
2022/03/07 03:15:08;;;;;;;;;;;;;;;;;;4936935;29;19919;-77
2022/03/07 03:17:34;;;;;;;;;;;;;;;;;;4929798;29;19975;-77
2022/03/07 03:20:00;;;;;;;;;;;;;;;;;;4915304;29;19985;-76
2022/03/07 03:22:26;;;;;;;;;;;;;;;;;;4919381;29;19975;-77
2022/03/07 03:24:52;;;;;;;;;;;;;;;;;;4934964;29;19923;-76
2022/03/07 03:27:18;;;;;;;;;;;;;;;;;;4936062;29;20009;-77
2022/03/07 03:29:44;;;;;;;;;;;;;;;;;;4937104;29;20309;-76
2022/03/07 03:32:10;;;;;;;;;;;;;;;;;;4920229;29;20328;-77
2022/03/07 03:34:35;;;;;;;;;;;;;;;;;;4936500;29;19910;-76
2022/03/07 03:37:01;;;;;;;;;;;;;;;;;;4936408;29;19911;-77
2022/03/07 03:39:27;;;;;;;;;;;;;;;;;;4936138;29;19922;-76
2022/03/07 03:41:53;;;;;;;;;;;;;;;;;;4936687;29;19918;-76
2022/03/07 03:44:19;;;;;;;;;;;;;;;;;;4936590;29;20333;-77
2022/03/07 03:46:45;;;;;;;;;;;;;;;;;;4935075;29;19967;-76
2022/03/07 03:49:11;;;;;;;;;;;;;;;;;;4917440;29;19976;-76
2022/03/07 03:51:37;;;;;;;;;;;;;;;;;;4917261;29;20375;-76
2022/03/07 03:54:03;;;;;;;;;;;;;;;;;;4917402;29;19915;-76
2022/03/07 03:56:29;;;;;;;;;;;;;;;;;;4917237;29;20402;-77
2022/03/07 03:58:55;;;;;;;;;;;;;;;;;;4917347;29;20014;-77
2022/03/07 04:01:20;;;;;;;;;;;;;;;;;;4917128;29;19958;-77
2022/03/07 04:03:46;;;;;;;;;;;;;;;;;;4917429;29;20462;-76
2022/03/07 04:06:12;;;;;;;;;;;;;;;;;;4891814;29;20052;-76
2022/03/07 04:08:38;;;;;;;;;;;;;;;;;;4928628;29;19926;-76
2022/03/07 04:11:04;;;;;;;;;;;;;;;;;;4917114;29;20297;-77
2022/03/07 04:13:30;;;;;;;;;;;;;;;;;;4917214;29;20443;-77
2022/03/07 04:15:56;;;;;;;;;;;;;;;;;;4916662;29;20031;-77
2022/03/07 04:18:22;;;;;;;;;;;;;;;;;;4919328;29;19919;-76
2022/03/07 04:20:48;;;;;;;;;;;;;;;;;;4916507;29;19953;-77
2022/03/07 04:23:20;;;;;;;;;;;;;;;;;;4916773;29;19915;-77
2022/03/07 04:25:46;;;;;;;;;;;;;;;;;;4916744;29;19967;-77
2022/03/07 04:28:13;;;;;;;;;;;;;;;;;;4899738;29;19915;-77
2022/03/07 04:30:39;;;;;;;;;;;;;;;;;;4916652;29;19911;-76
2022/03/07 04:33:04;;;;;;;;;;;;;;;;;;4896270;29;19931;-77
2022/03/07 04:35:30;;;;;;;;;;;;;;;;;;4897958;29;19934;-76
2022/03/07 04:37:56;;;;;;;;;;;;;;;;;;4897757;29;19912;-77
2022/03/07 04:40:22;;;;;;;;;;;;;;;;;;4897762;29;19947;-77
2022/03/07 04:42:48;;;;;;;;;;;;;;;;;;4897423;29;19912;-77
2022/03/07 04:45:14;;;;;;;;;;;;;;;;;;4897962;29;19915;-76
2022/03/07 04:47:40;;;;;;;;;;;;;;;;;;4921618;29;20279;-77
2022/03/07 04:50:06;;;;;;;;;;;;;;;;;;4934911;29;20367;-77
2022/03/07 04:52:32;;;;;;;;;;;;;;;;;;4935385;29;20455;-76
2022/03/07 04:54:58;;;;;;;;;;;;;;;;;;4935394;29;19911;-77
2022/03/07 04:57:24;;;;;;;;;;;;;;;;;;4935471;29;20334;-77
2022/03/07 04:59:50;;;;;;;;;;;;;;;;;;4918323;29;19910;-77
2022/03/07 05:02:16;;;;;;;;;;;;;;;;;;4934913;29;19922;-77
2022/03/07 05:04:41;;;;;;;;;;;;;;;;;;4934560;29;19921;-76
2022/03/07 05:07:07;;;;;;;;;;;;;;;;;;4933699;29;19950;-77
2022/03/07 05:09:34;;;;;;;;;;;;;;;;;;4935084;29;20373;-77
2022/03/07 05:11:59;;;;;;;;;;;;;;;;;;4935169;29;20264;-80
2022/03/07 05:14:25;;;;;;;;;;;;;;;;;;4935229;29;19975;-80
2022/03/07 05:16:51;;;;;;;;;;;;;;;;;;4931242;29;19923;-77
2022/03/07 05:19:17;;;;;;;;;;;;;;;;;;4934708;29;19962;-79
2022/03/07 05:21:43;;;;;;;;;;;;;;;;;;4933781;29;20276;-77
2022/03/07 05:24:09;;;;;;;;;;;;;;;;;;4935046;29;19942;-78
2022/03/07 05:26:35;;;;;;;;;;;;;;;;;;4935460;29;20339;-79
2022/03/07 05:29:02;;;;;;;;;;;;;;;;;;4918181;29;19911;-76
2022/03/07 05:31:28;;;;;;;;;;;;;;;;;;4935105;29;19911;-76
2022/03/07 05:33:54;;;;;;;;;;;;;;;;;;4934778;29;19911;-76
2022/03/07 05:36:19;;;;;;;;;;;;;;;;;;4922768;29;19915;-76
2022/03/07 05:38:45;;;;;;;;;;;;;;;;;;4915882;29;20390;-76
2022/03/07 05:41:11;;;;;;;;;;;;;;;;;;4917029;29;19930;-77
2022/03/07 05:43:37;;;;;;;;;;;;;;;;;;4930038;29;19923;-76
2022/03/07 05:46:03;;;;;;;;;;;;;;;;;;4931618;29;19921;-76
2022/03/07 05:48:29;;;;;;;;;;;;;;;;;;4917295;29;20287;-76
2022/03/07 05:50:55;;;;;;;;;;;;;;;;;;4916887;29;19924;-76
2022/03/07 05:53:23;;;;;;;;;;;;;;;;;;4907721;29;19911;-76
2022/03/07 05:55:49;;;;;;;;;;;;;;;;;;4926373;29;19915;-76
2022/03/07 05:58:15;;;;;;;;;;;;;;;;;;4934814;29;19914;-76
2022/03/07 06:00:41;;;;;;;;;;;;;;;;;;4934574;29;19914;-76
2022/03/07 06:03:07;;;;;;;;;;;;;;;;;;4931873;29;19922;-76
2022/03/07 06:05:32;;;;;;;;;;;;;;;;;;4919136;29;19919;-76
2022/03/07 06:07:58;;;;;;;;;;;;;;;;;;4919123;29;20301;-76
2022/03/07 06:10:24;;;;;;;;;;;;;;;;;;4919395;29;19915;-76
2022/03/07 06:12:50;;;;;;;;;;;;;;;;;;4921582;29;19916;-75
2022/03/07 06:15:16;;;;;;;;;;;;;;;;;;4933782;29;19923;-75
2022/03/07 06:17:42;;;;;;;;;;;;;;;;;;4927369;29;20378;-76
2022/03/07 06:20:08;;;;;;;;;;;;;;;;;;4921479;29;19911;-76
2022/03/07 06:22:34;;;;;;;;;;;;;;;;;;4926381;29;19919;-75
2022/03/07 06:25:00;;;;;;;;;;;;;;;;;;4936139;29;19911;-75
2022/03/07 06:27:26;;;;;;;;;;;;;;;;;;4933768;29;19970;-75
2022/03/07 06:29:52;;;;;;;;;;;;;;;;;;4935714;29;19918;-75
2022/03/07 06:32:20;;;;;;;;;;;;;;;;;;4934734;29;20430;-74
2022/03/07 06:34:46;;;;;;;;;;;;;;;;;;4936596;29;19914;-75
2022/03/07 06:37:11;;;;;;;;;;;;;;;;;;4936031;29;19926;-74
2022/03/07 06:39:37;;;;;;;;;;;;;;;;;;4936599;29;20342;-75
2022/03/07 06:42:03;;;;;;;;;;;;;;;;;;4936209;29;19911;-74
2022/03/07 06:44:29;;;;;;;;;;;;;;;;;;4933660;29;19911;-75
2022/03/07 06:46:55;;;;;;;;;;;;;;;;;;4914645;29;19987;-77
2022/03/07 06:49:21;;;;;;;;;;;;;;;;;;4917084;29;19919;-74
2022/03/07 06:51:47;;;;;;;;;;;;;;;;;;4930935;29;19910;-76
2022/03/07 06:54:13;;;;;;;;;;;;;;;;;;4938258;29;19910;-76
2022/03/07 06:56:39;;;;;;;;;;;;;;;;;;4938234;29;19907;-76
2022/03/07 06:59:05;;;;;;;;;;;;;;;;;;4938071;29;19915;-76
2022/03/07 07:01:31;;;;;;;;;;;;;;;;;;4938044;29;19911;-76
2022/03/07 07:03:56;;;;;;;;;;;;;;;;;;4938055;29;19914;-76
2022/03/07 07:06:22;;;;;;;;;;;;;;;;;;4937786;29;19911;-76
2022/03/07 07:08:48;;;;;;;;;;;;;;;;;;4921145;29;20031;-76
2022/03/07 07:11:14;;;;;;;;;;;;;;;;;;4937601;29;20359;-76
2022/03/07 07:13:40;;;;;;;;;;;;;;;;;;4911312;29;19912;-76
2022/03/07 07:16:06;;;;;;;;;;;;;;;;;;4910497;29;19927;-76
2022/03/07 07:18:32;;;;;;;;;;;;;;;;;;4919146;29;19927;-76
2022/03/07 07:20:58;;;;;;;;;;;;;;;;;;4901742;29;19912;-76
2022/03/07 07:23:24;;;;;;;;;;;;;;;;;;4918120;29;19932;-76
2022/03/07 07:25:50;;;;;;;;;;;;;;;;;;4914603;29;20272;-76
2022/03/07 07:28:15;;;;;;;;;;;;;;;;;;4908716;29;19963;-76
2022/03/07 07:30:42;;;;;;;;;;;;;;;;;;4899343;29;20002;-76
2022/03/07 07:33:08;;;;;;;;;;;;;;;;;;4914262;29;19990;-76
2022/03/07 07:35:36;;;;;;;;;;;;;;;;;;4899679;29;19946;-76
2022/03/07 07:38:01;;;;;;;;;;;;;;;;;;4899363;29;19911;-76
2022/03/07 07:40:27;;;;;;;;;;;;;;;;;;4899546;29;20023;-75
2022/03/07 07:42:53;;;;;;;;;;;;;;;;;;4926234;29;19915;-76
2022/03/07 07:45:19;;;;;;;;;;;;;;;;;;4926119;29;19922;-76
2022/03/07 07:47:45;;;;;;;;;;;;;;;;;;4917793;29;20748;-76
2022/03/07 07:50:11;;;;;;;;;;;;;;;;;;4921173;29;19918;-77
2022/03/07 07:52:37;;;;;;;;;;;;;;;;;;4924364;29;19971;-76
2022/03/07 07:55:04;;;;;;;;;;;;;;;;;;4925910;29;19990;-76
2022/03/07 07:57:30;;;;;;;;;;;;;;;;;;4936744;29;19918;-74
2022/03/07 07:59:56;;;;;;;;;;;;;;;;;;4936952;29;19907;-76
2022/03/07 08:02:22;;;;;;;;;;;;;;;;;;4936781;29;20377;-74
2022/03/07 08:04:51;;;;;;;;;;;;;;;;;;4934982;29;19910;-76
2022/03/07 08:07:17;;;;;;;;;;;;;;;;;;4918006;29;19926;-76
2022/03/07 08:09:43;;;;;;;;;;;;;;;;;;4930201;29;19911;-77
2022/03/07 08:12:10;;;;;;;;;;;;;;;;;;4933208;29;20446;-76
2022/03/07 08:14:36;;;;;;;;;;;;;;;;;;4934874;29;20282;-76
2022/03/07 08:17:03;;;;;;;;;;;;;;;;;;4915938;29;19923;-76
2022/03/07 08:19:29;;;;;;;;;;;;;;;;;;4932090;29;19914;-77
2022/03/07 09:15:18;;;;;;;;;;;;;;;;;;5972686;23;19949;-78
2022/03/07 09:20:16;;;;;;;;;;;;;;;;;;4903227;29;19926;-78
2022/03/07 09:22:42;;;;;;;;;;;;;;;;;;4879314;29;19918;-78
2022/03/07 09:25:08;;;;;;;;;;;;;;;;;;4908833;29;19911;-80
2022/03/07 09:27:35;;;;;;;;;;;;;;;;;;4893398;29;19938;-79
2022/03/07 09:30:00;;;;;;;;;;;;;;;;;;4901761;29;19979;-79
2022/03/07 09:32:26;;;;;;;;;;;;;;;;;;4903332;29;19919;-79
2022/03/07 09:34:52;;;;;;;;;;;;;;;;;;4894595;29;19915;-80
2022/03/07 09:37:18;;;;;;;;;;;;;;;;;;4897591;29;20052;-79
2022/03/07 09:39:44;;;;;;;;;;;;;;;;;;4903656;29;19969;-80
2022/03/07 09:42:10;;;;;;;;;;;;;;;;;;4906258;29;19929;-80
2022/03/07 09:44:36;;;;;;;;;;;;;;;;;;4885753;29;20476;-79
2022/03/07 09:47:03;;;;;;;;;;;;;;;;;;4910286;29;19919;-80
2022/03/07 09:49:28;;;;;;;;;;;;;;;;;;4904079;29;19974;-80
2022/03/07 09:51:54;;;;;;;;;;;;;;;;;;4904190;29;19959;-79
2022/03/07 09:54:20;;;;;;;;;;;;;;;;;;4888552;29;20014;-79
2022/03/07 09:56:46;;;;;;;;;;;;;;;;;;4905953;29;19919;-80
2022/03/07 09:59:12;;;;;;;;;;;;;;;;;;4905771;29;20283;-80
2022/03/07 10:01:38;;;;;;;;;;;;;;;;;;4899925;29;19937;-79
2022/03/07 10:04:04;;;;;;;;;;;;;;;;;;4903945;29;19961;-79
2022/03/07 10:06:31;;;;;;;;;;;;;;;;;;4900098;29;20447;-79
2022/03/07 10:08:58;;;;;;;;;;;;;;;;;;4912465;29;20324;-80
2022/03/07 10:11:24;;;;;;;;;;;;;;;;;;4904866;29;19912;-80
2022/03/07 10:13:50;;;;;;;;;;;;;;;;;;4909025;29;19958;-80
2022/03/07 10:16:16;;;;;;;;;;;;;;;;;;4903100;29;20398;-79
2022/03/07 10:18:41;;;;;;;;;;;;;;;;;;4892633;29;20281;-80
2022/03/07 10:21:07;;;;;;;;;;;;;;;;;;4894151;29;19915;-79
2022/03/07 10:23:34;;;;;;;;;;;;;;;;;;4892179;29;19949;-79
2022/03/07 10:25:59;;;;;;;;;;;;;;;;;;4895959;29;19927;-80
2022/03/07 10:28:25;;;;;;;;;;;;;;;;;;4892433;29;20410;-77
2022/03/07 10:30:51;;;;;;;;;;;;;;;;;;4896703;29;19916;-78
2022/03/07 10:33:17;;;;;;;;;;;;;;;;;;4874082;29;19990;-79
2022/03/07 10:35:43;;;;;;;;;;;;;;;;;;4908347;29;20279;-79
2022/03/07 10:38:09;;;;;;;;;;;;;;;;;;4892768;29;19922;-79
2022/03/07 10:40:35;;;;;;;;;;;;;;;;;;4891009;29;19919;-80
2022/03/07 10:43:01;;;;;;;;;;;;;;;;;;4893461;29;19931;-79
2022/03/07 10:45:27;;;;;;;;;;;;;;;;;;4896361;29;19916;-78
2022/03/07 10:47:53;;;;;;;;;;;;;;;;;;4889880;29;19968;-79
2022/03/07 10:50:19;;;;;;;;;;;;;;;;;;4897094;29;20421;-79
2022/03/07 10:52:45;;;;;;;;;;;;;;;;;;4883531;29;20288;-77
2022/03/07 10:55:10;;;;;;;;;;;;;;;;;;4879028;29;19975;-79
2022/03/07 10:57:36;;;;;;;;;;;;;;;;;;4898047;29;19911;-79
2022/03/07 11:00:02;;;;;;;;;;;;;;;;;;4893052;29;19916;-79
2022/03/07 11:02:28;;;;;;;;;;;;;;;;;;4896441;29;20002;-79
2022/03/07 11:04:54;;;;;;;;;;;;;;;;;;4893367;29;20303;-80
2022/03/07 11:07:20;;;;;;;;;;;;;;;;;;4892395;29;19916;-79
2022/03/07 11:09:52;;;;;;;;;;;;;;;;;;4890037;29;19912;-79
2022/03/07 11:12:18;;;;;;;;;;;;;;;;;;4896817;29;19919;-79
2022/03/07 11:14:44;;;;;;;;;;;;;;;;;;4882254;29;19912;-79
2022/03/07 11:17:10;;;;;;;;;;;;;;;;;;4897334;29;20374;-79
2022/03/07 11:19:35;;;;;;;;;;;;;;;;;;4889770;29;19916;-80
2022/03/07 11:22:01;;;;;;;;;;;;;;;;;;4891050;29;19922;-79
2022/03/07 11:24:28;;;;;;;;;;;;;;;;;;4895295;29;20434;-79
2022/03/07 11:26:54;;;;;;;;;;;;;;;;;;4891284;29;20338;-79
2022/03/07 11:29:20;;;;;;;;;;;;;;;;;;4889484;29;19923;-79
2022/03/07 11:31:46;;;;;;;;;;;;;;;;;;4878685;29;19915;-80
2022/03/07 11:34:12;;;;;;;;;;;;;;;;;;4895721;29;20029;-79
2022/03/07 11:36:38;;;;;;;;;;;;;;;;;;4902000;29;20968;-78
2022/03/07 11:39:04;;;;;;;;;;;;;;;;;;4894293;29;19916;-79
2022/03/07 11:41:30;;;;;;;;;;;;;;;;;;4897879;29;19994;-79
2022/03/07 11:43:56;;;;;;;;;;;;;;;;;;4902613;29;19915;-78
2022/03/07 11:46:22;;;;;;;;;;;;;;;;;;4897186;29;19922;-79
2022/03/07 12:22:35;;;;;;;;;;;;;;;;;;5315135;23;19978;-81
2022/03/07 12:25:01;;;;;;;;;;;;;;;;;;4900715;29;20379;-81
2022/03/07 12:27:27;;;;;;;;;;;;;;;;;;4917516;29;20011;-81
2022/03/07 12:29:53;;;;;;;;;;;;;;;;;;4920737;29;19915;-81
2022/03/07 12:32:19;;;;;;;;;;;;;;;;;;4936307;29;20362;-80
2022/03/07 12:34:45;;;;;;;;;;;;;;;;;;4913367;29;20298;-79
2022/03/07 12:37:11;;;;;;;;;;;;;;;;;;4917511;29;19911;-79
2022/03/07 12:39:37;;;;;;;;;;;;;;;;;;4917115;29;19915;-79
2022/03/07 12:42:03;;;;;;;;;;;;;;;;;;4915148;29;19919;-79
2022/03/07 12:44:29;;;;;;;;;;;;;;;;;;4912559;29;20007;-79
2022/03/07 12:46:55;;;;;;;;;;;;;;;;;;4906241;29;20002;-79
2022/03/07 12:49:20;;;;;;;;;;;;;;;;;;4926493;29;19914;-79
2022/03/07 12:51:46;;;;;;;;;;;;;;;;;;4916586;29;19998;-79
2022/03/07 12:54:12;;;;;;;;;;;;;;;;;;4919027;29;19911;-79
2022/03/07 12:56:38;;;;;;;;;;;;;;;;;;4925034;29;19911;-80
2022/03/07 12:59:04;;;;;;;;;;;;;;;;;;4902924;29;19951;-80
2022/03/07 13:01:31;;;;;;;;;;;;;;;;;;4909230;29;19911;-79
2022/03/07 13:03:58;;;;;;;;;;;;;;;;;;4922569;29;20005;-79
2022/03/07 13:06:24;;;;;;;;;;;;;;;;;;4918168;29;19922;-79
2022/03/07 13:08:49;;;;;;;;;;;;;;;;;;4916309;29;19920;-80
2022/03/07 13:11:16;;;;;;;;;;;;;;;;;;4914656;29;19911;-79
2022/03/07 13:13:41;;;;;;;;;;;;;;;;;;4917743;29;19998;-79
2022/03/07 13:16:07;;;;;;;;;;;;;;;;;;4922141;29;20022;-80
2022/03/07 13:18:33;;;;;;;;;;;;;;;;;;4925076;29;19915;-80
2022/03/07 13:20:59;;;;;;;;;;;;;;;;;;4918115;29;20406;-79
2022/03/07 13:23:27;;;;;;;;;;;;;;;;;;4916242;29;20011;-80
2022/03/07 13:25:53;;;;;;;;;;;;;;;;;;4928947;29;20086;-79
2022/03/07 13:28:19;;;;;;;;;;;;;;;;;;4925963;29;20005;-79
2022/03/07 13:30:45;;;;;;;;;;;;;;;;;;4912388;29;19919;-80
2022/03/07 13:33:11;;;;;;;;;;;;;;;;;;4916324;29;19911;-80
2022/03/07 13:35:37;;;;;;;;;;;;;;;;;;4926972;29;19933;-80
2022/03/07 13:38:03;;;;;;;;;;;;;;;;;;4917912;29;19915;-78
2022/03/07 13:40:36;;;;;;;;;;;;;;;;;;4933544;29;19911;-79
2022/03/07 13:43:02;;;;;;;;;;;;;;;;;;4919895;29;20353;-79
2022/03/07 13:45:28;;;;;;;;;;;;;;;;;;4931096;29;20001;-79
2022/03/07 13:47:54;;;;;;;;;;;;;;;;;;4920211;29;19915;-79
2022/03/07 13:50:24;;;;;;;;;;;;;;;;;;4933868;29;19910;-79
2022/03/07 13:52:53;;;;;;;;;;;;;;;;;;4922974;29;20853;-80
2022/03/07 13:55:22;;;;;;;;;;;;;;;;;;4934567;29;19918;-80
2022/03/07 13:57:48;;;;;;;;;;;;;;;;;;4924386;29;19918;-79
2022/03/07 14:00:14;;;;;;;;;;;;;;;;;;4932345;29;19966;-80
2022/03/07 14:02:40;;;;;;;;;;;;;;;;;;4928303;29;19919;-79
2022/03/07 14:05:06;;;;;;;;;;;;;;;;;;4928407;29;19918;-80
2022/03/07 14:07:32;;;;;;;;;;;;;;;;;;4932919;29;19915;-80
2022/03/07 14:09:58;;;;;;;;;;;;;;;;;;4919803;29;19922;-79
2022/03/07 14:12:24;;;;;;;;;;;;;;;;;;4928322;29;19978;-80
2022/03/07 14:14:50;;;;;;;;;;;;;;;;;;4925875;29;19926;-80
2022/03/07 14:17:16;;;;;;;;;;;;;;;;;;4926419;29;20397;-81
2022/03/07 14:19:42;;;;;;;;;;;;;;;;;;4921277;29;19918;-80
2022/03/07 14:22:08;;;;;;;;;;;;;;;;;;4933108;29;19954;-80
2022/03/07 14:24:34;;;;;;;;;;;;;;;;;;4914156;29;20420;-81
2022/03/07 14:27:00;;;;;;;;;;;;;;;;;;4926481;29;20063;-80
2022/03/07 14:29:25;;;;;;;;;;;;;;;;;;4921224;29;19919;-82
2022/03/07 14:31:51;;;;;;;;;;;;;;;;;;4927099;29;19937;-81
2022/03/07 14:34:17;;;;;;;;;;;;;;;;;;4916741;29;19919;-82
2022/03/07 14:36:44;;;;;;;;;;;;;;;;;;4918541;29;19921;-81
2022/03/07 14:39:11;;;;;;;;;;;;;;;;;;4925947;29;19950;-81
2022/03/07 14:41:39;;;;;;;;;;;;;;;;;;4931688;29;19911;-80
2022/03/07 14:44:05;;;;;;;;;;;;;;;;;;4927114;29;19954;-81
2022/03/07 14:46:32;;;;;;;;;;;;;;;;;;4927718;29;20414;-79
2022/03/07 14:48:58;;;;;;;;;;;;;;;;;;4934094;29;19966;-80
2022/03/07 14:51:24;;;;;;;;;;;;;;;;;;4918304;29;19919;-80
2022/03/07 14:53:50;;;;;;;;;;;;;;;;;;4927853;29;19911;-80
2022/03/07 14:56:16;;;;;;;;;;;;;;;;;;4935335;29;19915;-80
2022/03/07 14:58:42;;;;;;;;;;;;;;;;;;4915051;29;20556;-79
2022/03/07 15:01:08;;;;;;;;;;;;;;;;;;4921732;29;19911;-75
2022/03/07 15:03:34;;;;;;;;;;;;;;;;;;4914301;29;20406;-76
2022/03/07 15:06:00;;;;;;;;;;;;;;;;;;4910488;29;19915;-77
2022/03/07 15:08:26;;;;;;;;;;;;;;;;;;4918959;29;19919;-82
2022/03/07 15:10:52;;;;;;;;;;;;;;;;;;4918780;29;19916;-81
2022/03/07 15:13:18;;;;;;;;;;;;;;;;;;4919080;29;20364;-80
2022/03/07 15:15:44;;;;;;;;;;;;;;;;;;4900912;29;19917;-79
2022/03/07 15:18:10;;;;;;;;;;;;;;;;;;4900081;29;19918;-79
2022/03/07 15:20:36;;;;;;;;;;;;;;;;;;4883304;29;19960;-80
2022/03/07 15:23:02;;;;;;;;;;;;;;;;;;4899527;29;19923;-80
2022/03/07 15:25:28;;;;;;;;;;;;;;;;;;4900137;29;20341;-80
2022/03/07 15:27:54;;;;;;;;;;;;;;;;;;4882621;29;19927;-80
2022/03/07 15:30:20;;;;;;;;;;;;;;;;;;4899870;29;19912;-80
2022/03/07 15:32:45;;;;;;;;;;;;;;;;;;4882881;29;19907;-80
2022/03/07 15:35:11;;;;;;;;;;;;;;;;;;4899564;29;19915;-80
2022/03/07 15:37:37;;;;;;;;;;;;;;;;;;4899940;29;20341;-80
2022/03/07 15:40:03;;;;;;;;;;;;;;;;;;4882691;29;20499;-80
2022/03/07 15:42:29;;;;;;;;;;;;;;;;;;4899425;29;19967;-80
2022/03/07 15:44:57;;;;;;;;;;;;;;;;;;4899824;29;19958;-80
2022/03/07 15:47:23;;;;;;;;;;;;;;;;;;4899675;29;19916;-80
2022/03/07 15:49:49;;;;;;;;;;;;;;;;;;4899447;29;20407;-80
2022/03/07 15:52:15;;;;;;;;;;;;;;;;;;4882602;29;19918;-80
2022/03/07 15:54:41;;;;;;;;;;;;;;;;;;4899510;29;19911;-80
2022/03/07 15:57:06;;;;;;;;;;;;;;;;;;4899002;29;20398;-79
2022/03/07 15:59:32;;;;;;;;;;;;;;;;;;4899431;29;19968;-79
2022/03/07 16:01:58;;;;;;;;;;;;;;;;;;4899160;29;19911;-80
2022/03/07 16:04:24;;;;;;;;;;;;;;;;;;4899541;29;19914;-80
2022/03/07 16:06:54;;;;;;;;;;;;;;;;;;4910849;29;20354;-81
2022/03/07 16:09:20;;;;;;;;;;;;;;;;;;4917826;29;19993;-81
2022/03/07 16:11:46;;;;;;;;;;;;;;;;;;4917697;29;20434;-81
2022/03/07 16:14:12;;;;;;;;;;;;;;;;;;4900756;29;19911;-81
2022/03/07 16:16:38;;;;;;;;;;;;;;;;;;4892933;29;19912;-84
2022/03/07 16:19:05;;;;;;;;;;;;;;;;;;4913348;29;19918;-82
2022/03/07 16:21:32;;;;;;;;;;;;;;;;;;4898818;29;20420;-83
2022/03/07 16:23:58;;;;;;;;;;;;;;;;;;4898660;29;19967;-82
2022/03/07 16:26:24;;;;;;;;;;;;;;;;;;4898537;29;19919;-82
2022/03/07 16:28:49;;;;;;;;;;;;;;;;;;4898831;29;19915;-81
2022/03/07 16:31:15;;;;;;;;;;;;;;;;;;4898587;29;19912;-79
2022/03/07 16:33:41;;;;;;;;;;;;;;;;;;4898780;29;20320;-81
2022/03/07 16:36:07;;;;;;;;;;;;;;;;;;4898632;29;19971;-80
2022/03/07 16:38:35;;;;;;;;;;;;;;;;;;4898608;29;19967;-83
2022/03/07 16:41:01;;;;;;;;;;;;;;;;;;4898161;29;19918;-85
2022/03/07 16:43:27;;;;;;;;;;;;;;;;;;4898651;29;20006;-82
2022/03/07 16:45:53;;;;;;;;;;;;;;;;;;4898270;29;19915;-82
2022/03/07 16:48:19;;;;;;;;;;;;;;;;;;4918247;29;19921;-82
2022/03/07 16:50:46;;;;;;;;;;;;;;;;;;4936197;29;19933;-81
2022/03/07 16:53:13;;;;;;;;;;;;;;;;;;4935274;29;19915;-86
2022/03/07 16:55:39;;;;;;;;;;;;;;;;;;4924387;29;19919;-82
2022/03/07 16:58:05;;;;;;;;;;;;;;;;;;4919195;29;19911;-82
2022/03/07 17:00:31;;;;;;;;;;;;;;;;;;4920192;29;19910;-82
2022/03/07 17:02:57;;;;;;;;;;;;;;;;;;4927666;29;19999;-82
2022/03/07 17:05:23;;;;;;;;;;;;;;;;;;4917028;29;20335;-82
2022/03/07 17:07:48;;;;;;;;;;;;;;;;;;4934972;29;19915;-83
2022/03/07 17:10:14;;;;;;;;;;;;;;;;;;4918517;29;19915;-81
2022/03/07 17:12:40;;;;;;;;;;;;;;;;;;4930751;29;19911;-81
2022/03/07 17:15:06;;;;;;;;;;;;;;;;;;4918643;29;20424;-81
2022/03/07 17:17:32;;;;;;;;;;;;;;;;;;4933363;29;19910;-81
2022/03/07 17:19:58;;;;;;;;;;;;;;;;;;4935802;29;19942;-81
2022/03/07 17:22:27;;;;;;;;;;;;;;;;;;4935100;29;19994;-81
2022/03/07 17:24:53;;;;;;;;;;;;;;;;;;4935240;29;20278;-81
2022/03/07 17:27:19;;;;;;;;;;;;;;;;;;4917965;29;19918;-81
2022/03/07 17:29:45;;;;;;;;;;;;;;;;;;4935538;29;20386;-80
2022/03/07 17:32:10;;;;;;;;;;;;;;;;;;4935245;29;19917;-81
2022/03/07 17:34:36;;;;;;;;;;;;;;;;;;4918567;29;19911;-80
2022/03/07 17:37:03;;;;;;;;;;;;;;;;;;4935552;29;19971;-80
2022/03/07 17:39:29;;;;;;;;;;;;;;;;;;4935148;29;19959;-81
2022/03/07 17:41:55;;;;;;;;;;;;;;;;;;4918574;29;20375;-81
2022/03/07 17:44:21;;;;;;;;;;;;;;;;;;4935237;29;20005;-79
2022/03/07 17:46:47;;;;;;;;;;;;;;;;;;4935064;29;19911;-79
2022/03/07 17:49:13;;;;;;;;;;;;;;;;;;4929743;29;19915;-77
2022/03/07 17:51:39;;;;;;;;;;;;;;;;;;4916460;29;19911;-79
2022/03/07 17:54:05;;;;;;;;;;;;;;;;;;4931409;29;19917;-77
2022/03/07 17:56:31;;;;;;;;;;;;;;;;;;4935540;29;19911;-77
2022/03/07 17:58:57;;;;;;;;;;;;;;;;;;4939725;29;20274;-80
2022/03/07 18:01:22;;;;;;;;;;;;;;;;;;4939371;29;19918;-77
2022/03/07 18:03:48;;;;;;;;;;;;;;;;;;4939370;29;19915;-79
2022/03/07 18:06:14;;;;;;;;;;;;;;;;;;4939139;29;20388;-79